createdAt,value
2019-05-09T00:02:14.255Z,23.27
2019-05-09T00:04:44.067Z,17.27
2019-05-09T00:07:13.987Z,22.15
2019-05-09T00:09:44.078Z,20.12
2019-05-09T00:12:14.162Z,20.82
2019-05-09T00:14:43.453Z,20.60
2019-05-09T00:17:14.108Z,17.80
2019-05-09T00:19:43.881Z,18.70
2019-05-09T00:22:13.715Z,19.35
2019-05-09T00:24:44.532Z,19.80
2019-05-09T00:27:14.144Z,18.42
2019-05-09T00:29:44.532Z,15.18
2019-05-09T00:32:17.630Z,14.90
2019-05-09T00:34:53.530Z,15.72
2019-05-09T00:37:23.878Z,12.27
2019-05-09T00:39:53.344Z,15.27
2019-05-09T00:42:23.970Z,13.35
2019-05-09T00:44:59.902Z,13.32
2019-05-09T00:47:29.298Z,10.50
2019-05-09T00:49:57.880Z,12.68
2019-05-09T00:52:26.437Z,14.05
2019-05-09T00:54:54.963Z,11.38
2019-05-09T00:57:35.028Z,14.40
2019-05-09T01:00:08.207Z,13.85
2019-05-09T01:02:36.715Z,11.78
2019-05-09T01:05:05.537Z,12.45
2019-05-09T01:07:34.058Z,12.33
2019-05-09T01:10:04.298Z,11.20
2019-05-09T01:12:34.149Z,10.97
2019-05-09T01:15:04.528Z,9.70
2019-05-09T01:17:33.616Z,11.13
2019-05-09T01:20:03.430Z,11.43
2019-05-09T01:22:33.162Z,11.88
2019-05-09T01:25:04.011Z,12.35
2019-05-09T01:27:33.952Z,11.63
2019-05-09T01:30:04.554Z,10.00
2019-05-09T01:32:45.764Z,11.28
2019-05-09T01:37:43.406Z,10.10
2019-05-09T01:40:13.266Z,9.65
2019-05-09T01:42:43.255Z,15.50
2019-05-09T01:45:14.006Z,11.87
2019-05-09T01:47:43.074Z,12.03
2019-05-09T01:50:14.032Z,13.90
2019-05-09T01:52:43.857Z,15.20
2019-05-09T01:55:14.180Z,17.23
2019-05-09T01:57:45.699Z,18.80
2019-05-09T02:00:13.386Z,18.83
2019-05-09T02:02:43.314Z,21.57
2019-05-09T02:05:13.582Z,21.03
2019-05-09T02:07:43.831Z,17.62
2019-05-09T02:10:13.929Z,14.85
2019-05-09T02:12:43.114Z,15.85
2019-05-09T02:15:13.437Z,19.45
2019-05-09T02:17:57.848Z,13.30
2019-05-09T02:20:16.225Z,16.52
2019-05-09T02:22:44.703Z,18.07
2019-05-09T02:25:13.949Z,13.78
2019-05-09T02:27:43.699Z,14.68
2019-05-09T02:30:15.323Z,11.70
2019-05-09T02:32:44.964Z,11.77
2019-05-09T02:35:15.580Z,10.17
2019-05-09T02:37:44.076Z,8.77
2019-05-09T02:40:13.909Z,10.98
2019-05-09T02:42:42.563Z,13.18
2019-05-09T02:45:11.497Z,10.35
2019-05-09T02:47:40.109Z,12.35
2019-05-09T02:50:09.748Z,11.30
2019-05-09T02:52:39.679Z,10.82
2019-05-09T02:55:10.234Z,12.98
2019-05-09T02:57:39.210Z,15.43
2019-05-09T03:00:19.650Z,16.85
2019-05-09T03:02:50.419Z,11.33
2019-05-09T03:05:19.724Z,15.15
2019-05-09T03:07:51.540Z,14.33
2019-05-09T03:10:21.361Z,12.82
2019-05-09T03:12:50.691Z,13.70
2019-05-09T03:15:20.281Z,17.82
2019-05-09T03:17:49.853Z,16.85
2019-05-09T03:20:21.181Z,14.38
2019-05-09T03:22:49.677Z,16.70
2019-05-09T03:25:19.133Z,17.70
2019-05-09T03:27:49.483Z,19.92
2019-05-09T03:30:20.996Z,13.30
2019-05-09T03:32:49.653Z,19.02
2019-05-09T03:35:18.153Z,13.38
2019-05-09T03:37:48.391Z,19.37
2019-05-09T03:40:18.052Z,20.20
2019-05-09T03:42:48.648Z,19.65
2019-05-09T03:45:18.507Z,17.17
2019-05-09T03:47:48.705Z,18.67
2019-05-09T03:50:17.904Z,20.92
2019-05-09T03:52:47.805Z,22.87
2019-05-09T03:55:18.136Z,20.82
2019-05-09T03:57:51.174Z,15.80
2019-05-09T04:00:19.729Z,24.45
2019-05-09T04:02:48.264Z,21.80
2019-05-09T04:05:18.088Z,20.75
2019-05-09T04:07:47.948Z,21.40
2019-05-09T04:10:18.041Z,24.25
2019-05-09T04:12:55.816Z,22.75
2019-05-09T04:15:19.040Z,24.87
2019-05-09T04:17:47.612Z,24.98
2019-05-09T04:20:17.630Z,25.52
2019-05-09T04:22:48.801Z,30.00
2019-05-09T04:25:18.270Z,29.07
2019-05-09T04:27:48.393Z,54.67
2019-05-09T04:30:18.231Z,101.02
2019-05-09T04:32:48.151Z,70.67
2019-05-09T04:35:17.566Z,69.53
2019-05-09T04:37:48.296Z,66.10
2019-05-09T04:40:17.811Z,63.73
2019-05-09T04:45:40.252Z,51.30
2019-05-09T04:48:07.743Z,49.70
2019-05-09T04:50:37.690Z,48.85
2019-05-09T04:53:07.992Z,51.08
2019-05-09T04:55:38.312Z,55.83
2019-05-09T04:58:09.098Z,61.30
2019-05-09T05:00:54.605Z,53.87
2019-05-09T05:03:23.131Z,55.73
2019-05-09T05:05:51.625Z,52.53
2019-05-09T05:08:20.114Z,55.45
2019-05-09T05:10:48.597Z,54.77
2019-05-09T05:13:26.416Z,63.17
2019-05-09T05:15:47.575Z,53.40
2019-05-09T05:18:17.397Z,48.98
2019-05-09T05:20:48.189Z,51.42
2019-05-09T05:23:18.350Z,64.90
2019-05-09T05:25:47.609Z,64.82
2019-05-09T05:28:17.688Z,74.60
2019-05-09T05:30:47.696Z,61.63
2019-05-09T05:33:27.798Z,62.53
2019-05-09T05:36:00.853Z,49.30
2019-05-09T05:38:29.360Z,53.78
2019-05-09T05:40:57.956Z,56.15
2019-05-09T05:43:38.530Z,48.50
2019-05-09T05:45:58.500Z,43.52
2019-05-09T05:48:34.729Z,49.80
2019-05-09T05:51:03.256Z,51.55
2019-05-09T05:53:31.779Z,60.47
2019-05-09T05:56:00.439Z,69.40
2019-05-09T05:58:28.937Z,90.22
2019-05-09T06:00:58.954Z,64.53
2019-05-09T06:03:28.355Z,54.20
2019-05-09T06:05:58.426Z,57.30
2019-05-09T06:08:27.622Z,70.85
2019-05-09T06:10:57.632Z,74.53
2019-05-09T06:13:27.541Z,73.67
2019-05-09T06:15:58.433Z,81.95
2019-05-09T06:18:27.588Z,86.67
2019-05-09T06:20:58.247Z,86.45
2019-05-09T06:23:28.258Z,83.25
2019-05-09T06:25:58.795Z,87.67
2019-05-09T06:28:27.508Z,89.50
2019-05-09T06:30:58.479Z,78.20
2019-05-09T06:33:28.596Z,65.12
2019-05-09T06:35:58.932Z,75.92
2019-05-09T06:38:28.247Z,100.25
2019-05-09T06:40:58.166Z,133.67
2019-05-09T06:43:29.106Z,117.57
2019-05-09T06:46:05.310Z,107.07
2019-05-09T06:48:37.634Z,68.05
2019-05-09T06:51:07.330Z,63.85
2019-05-09T06:53:37.856Z,62.85
2019-05-09T06:56:07.408Z,69.33
2019-05-09T06:58:38.486Z,61.88
2019-05-09T07:01:25.306Z,70.13
2019-05-09T07:04:01.348Z,66.90
2019-05-09T07:06:31.484Z,62.13
2019-05-09T07:09:01.652Z,71.95
2019-05-09T07:11:30.140Z,77.20
2019-05-09T07:13:58.738Z,78.60
2019-05-09T07:16:27.720Z,77.35
2019-05-09T07:18:57.921Z,81.10
2019-05-09T07:21:28.669Z,72.32
2019-05-09T07:23:58.263Z,70.70
2019-05-09T07:26:28.560Z,72.32
2019-05-09T07:28:59.396Z,66.55
2019-05-09T07:31:28.919Z,67.75
2019-05-09T07:34:14.177Z,67.97
2019-05-09T07:36:42.698Z,62.35
2019-05-09T07:39:11.184Z,67.35
2019-05-09T07:41:39.681Z,70.20
2019-05-09T07:44:08.180Z,55.08
2019-05-09T07:46:38.523Z,59.65
2019-05-09T07:49:08.571Z,65.30
2019-05-09T07:51:37.448Z,55.48
2019-05-09T07:54:21.285Z,64.37
2019-05-09T07:56:37.822Z,53.42
2019-05-09T07:59:12.897Z,51.68
2019-05-09T08:01:41.447Z,62.43
2019-05-09T08:04:09.894Z,72.40
2019-05-09T08:06:38.488Z,60.73
2019-05-09T08:09:08.335Z,55.77
2019-05-09T08:11:37.774Z,69.97
2019-05-09T08:14:08.355Z,64.32
2019-05-09T08:16:37.935Z,62.40
2019-05-09T08:19:07.519Z,58.33
2019-05-09T08:21:38.273Z,48.00
2019-05-09T08:24:08.132Z,78.52
2019-05-09T08:26:39.293Z,61.80
2019-05-09T08:29:09.281Z,63.35
2019-05-09T08:31:40.089Z,131.25
2019-05-09T08:34:08.282Z,156.20
2019-05-09T08:36:38.491Z,74.13
2019-05-09T08:39:08.411Z,145.05
2019-05-09T08:41:38.501Z,188.97
2019-05-09T08:44:07.961Z,149.50
2019-05-09T08:46:37.756Z,88.22
2019-05-09T08:49:08.254Z,112.03
2019-05-09T08:51:52.024Z,82.13
2019-05-09T08:54:10.521Z,78.50
2019-05-09T08:56:39.054Z,74.80
2019-05-09T08:59:08.341Z,116.03
2019-05-09T09:01:54.321Z,135.75
2019-05-09T09:04:08.096Z,174.10
2019-05-09T09:06:38.001Z,114.15
2019-05-09T09:09:08.066Z,167.93
2019-05-09T09:11:38.516Z,201.65
2019-05-09T09:14:07.860Z,153.03
2019-05-09T09:16:37.947Z,266.88
2019-05-09T09:19:08.860Z,159.57
2019-05-09T09:21:38.823Z,228.60
2019-05-09T09:24:08.749Z,161.10
2019-05-09T09:26:38.221Z,97.95
2019-05-09T09:29:08.507Z,84.25
2019-05-09T09:31:37.857Z,97.80
2019-05-09T09:34:07.956Z,173.87
2019-05-09T09:36:38.883Z,86.92
2019-05-09T09:39:08.165Z,140.18
2019-05-09T09:41:38.561Z,133.43
2019-05-09T09:44:08.772Z,144.28
2019-05-09T09:46:37.521Z,90.55
2019-05-09T09:49:07.991Z,113.12
2019-05-09T09:51:38.202Z,90.85
2019-05-09T09:54:08.811Z,96.10
2019-05-09T09:56:38.651Z,89.07
2019-05-09T09:59:21.053Z,84.97
2019-05-09T10:01:51.193Z,77.67
2019-05-09T10:04:24.169Z,71.72
2019-05-09T10:06:52.974Z,61.07
2019-05-09T10:09:20.231Z,92.23
2019-05-09T10:11:48.820Z,75.37
2019-05-09T10:14:28.190Z,89.58
2019-05-09T10:16:59.465Z,67.25
2019-05-09T10:19:29.583Z,69.32
2019-05-09T10:21:59.817Z,87.47
2019-05-09T10:24:28.310Z,113.15
2019-05-09T10:27:08.304Z,104.47
2019-05-09T10:29:38.526Z,99.47
2019-05-09T10:32:08.991Z,72.73
2019-05-09T10:34:37.854Z,89.00
2019-05-09T10:37:07.702Z,81.05
2019-05-09T10:39:38.115Z,131.25
2019-05-09T10:42:18.870Z,95.70
2019-05-09T10:44:49.151Z,81.00
2019-05-09T10:47:27.260Z,137.57
2019-05-09T10:49:58.019Z,71.80
2019-05-09T10:52:27.781Z,228.23
2019-05-09T10:54:58.076Z,98.10
2019-05-09T10:57:30.936Z,86.20
2019-05-09T10:59:57.956Z,83.27
2019-05-09T11:02:27.970Z,70.37
2019-05-09T11:04:57.683Z,78.20
2019-05-09T11:07:28.742Z,79.40
2019-05-09T11:09:58.772Z,65.40
2019-05-09T11:12:27.608Z,62.33
2019-05-09T11:14:59.080Z,61.92
2019-05-09T11:17:28.562Z,59.75
2019-05-09T11:19:58.850Z,101.00
2019-05-09T11:22:29.305Z,102.82
2019-05-09T11:24:58.105Z,220.90
2019-05-09T11:27:29.077Z,82.42
2019-05-09T11:29:57.818Z,78.93
2019-05-09T11:32:27.795Z,226.90
2019-05-09T11:34:57.576Z,178.02
2019-05-09T11:37:26.425Z,145.07
2019-05-09T11:39:54.880Z,199.67
2019-05-09T11:42:23.390Z,215.55
2019-05-09T11:44:51.884Z,234.27
2019-05-09T11:47:32.012Z,199.70
2019-05-09T11:49:50.726Z,187.60
2019-05-09T11:52:19.307Z,223.07
2019-05-09T11:54:48.273Z,218.75
2019-05-09T11:57:19.166Z,186.73
2019-05-09T11:59:48.013Z,180.15
2019-05-09T12:02:18.096Z,196.93
2019-05-09T12:04:48.696Z,101.15
2019-05-09T12:07:17.914Z,87.08
2019-05-09T12:09:48.920Z,94.00
2019-05-09T12:12:19.328Z,81.10
2019-05-09T12:14:48.373Z,97.12
2019-05-09T12:17:19.728Z,80.97
2019-05-09T12:19:48.898Z,77.42
2019-05-09T12:22:19.038Z,79.77
2019-05-09T12:24:48.195Z,106.03
2019-05-09T12:27:18.787Z,86.02
2019-05-09T12:29:48.366Z,91.35
2019-05-09T12:32:18.614Z,84.45
2019-05-09T12:34:48.016Z,68.90
2019-05-09T12:37:18.260Z,78.80
2019-05-09T12:39:48.100Z,78.43
2019-05-09T12:42:18.454Z,116.62
2019-05-09T12:44:49.332Z,88.63
2019-05-09T12:47:19.051Z,79.03
2019-05-09T12:49:48.803Z,96.50
2019-05-09T12:52:18.673Z,75.92
2019-05-09T12:54:48.367Z,77.92
2019-05-09T12:57:19.321Z,93.30
2019-05-09T12:59:52.341Z,80.22
2019-05-09T13:02:17.863Z,66.42
2019-05-09T13:04:49.399Z,67.42
2019-05-09T13:07:18.002Z,115.10
2019-05-09T13:09:52.218Z,107.10
2019-05-09T13:12:18.100Z,112.03
2019-05-09T13:14:48.591Z,112.72
2019-05-09T13:17:18.655Z,109.50
2019-05-09T13:19:48.916Z,155.97
2019-05-09T13:22:18.525Z,93.62
2019-05-09T13:24:47.558Z,415.52
2019-05-09T13:27:18.702Z,125.72
2019-05-09T13:29:48.976Z,92.10
2019-05-09T13:32:18.066Z,90.75
2019-05-09T13:34:48.645Z,83.25
2019-05-09T13:37:18.838Z,95.60
2019-05-09T13:39:47.671Z,93.07
2019-05-09T13:42:19.200Z,88.67
2019-05-09T13:44:47.528Z,92.67
2019-05-09T13:47:17.896Z,63.52
2019-05-09T13:49:48.358Z,75.45
2019-05-09T13:52:17.974Z,80.45
2019-05-09T13:54:48.282Z,75.57
2019-05-09T13:57:18.773Z,58.07
2019-05-09T13:59:48.701Z,71.35
2019-05-09T14:02:18.729Z,76.25
2019-05-09T14:04:48.614Z,56.53
2019-05-09T14:07:19.341Z,65.52
2019-05-09T14:09:48.406Z,57.05
2019-05-09T14:12:17.626Z,56.33
2019-05-09T14:14:46.330Z,51.63
2019-05-09T14:17:15.360Z,56.58
2019-05-09T14:19:47.939Z,57.83
2019-05-09T14:22:17.914Z,43.43
2019-05-09T14:24:48.660Z,49.25
2019-05-09T14:27:18.753Z,46.63
2019-05-09T14:29:49.722Z,48.02
2019-05-09T14:32:17.659Z,49.58
2019-05-09T14:34:48.197Z,49.38
2019-05-09T14:37:18.070Z,47.53
2019-05-09T14:39:55.780Z,60.95
2019-05-09T14:42:18.908Z,61.77
2019-05-09T14:44:47.405Z,53.60
2019-05-09T14:47:17.610Z,46.45
2019-05-09T14:49:49.907Z,47.27
2019-05-09T14:52:17.876Z,46.53
2019-05-09T14:54:48.275Z,43.23
2019-05-09T14:57:17.527Z,49.13
2019-05-09T14:59:46.167Z,68.37
2019-05-09T15:02:14.719Z,70.00
2019-05-09T15:04:43.244Z,59.88
2019-05-09T15:07:11.742Z,68.25
2019-05-09T15:09:40.228Z,82.05
2019-05-09T15:12:08.715Z,86.47
2019-05-09T15:14:38.350Z,189.22
2019-05-09T15:17:08.808Z,93.70
2019-05-09T15:19:38.554Z,73.37
2019-05-09T15:22:08.245Z,78.50
2019-05-09T15:24:38.818Z,70.08
2019-05-09T15:27:07.636Z,71.77
2019-05-09T15:29:38.892Z,69.77
2019-05-09T15:32:11.692Z,69.55
2019-05-09T15:34:38.188Z,58.55
2019-05-09T15:37:08.810Z,58.83
2019-05-09T15:39:38.099Z,82.00
2019-05-09T15:42:07.398Z,50.90
2019-05-09T15:44:36.139Z,50.63
2019-05-09T15:47:12.666Z,55.35
2019-05-09T15:49:41.200Z,44.17
2019-05-09T15:52:09.694Z,57.08
2019-05-09T15:54:38.762Z,53.35
2019-05-09T15:57:08.649Z,96.87
2019-05-09T15:59:38.956Z,92.75
2019-05-09T16:02:09.076Z,150.80
2019-05-09T16:04:40.082Z,170.00
2019-05-09T16:07:08.210Z,153.37
2019-05-09T16:09:37.855Z,164.20
2019-05-09T16:12:07.747Z,58.08
2019-05-09T16:14:38.088Z,72.45
2019-05-09T16:17:07.850Z,117.65
2019-05-09T16:19:37.807Z,86.92
2019-05-09T16:22:07.983Z,95.25
2019-05-09T16:24:38.059Z,98.35
2019-05-09T16:27:08.443Z,72.53
2019-05-09T16:29:38.344Z,69.17
2019-05-09T16:32:08.795Z,80.70
2019-05-09T16:34:38.661Z,66.00
2019-05-09T16:37:07.693Z,60.03
2019-05-09T16:39:37.844Z,165.30
2019-05-09T16:42:06.652Z,156.60
2019-05-09T16:44:37.531Z,79.37
2019-05-09T16:47:05.426Z,252.05
2019-05-09T16:49:33.993Z,422.63
2019-05-09T16:52:04.096Z,98.92
2019-05-09T16:54:34.261Z,180.27
2019-05-09T16:57:02.774Z,245.23
2019-05-09T16:59:31.311Z,115.57
2019-05-09T17:01:59.892Z,85.42
2019-05-09T17:04:28.388Z,263.87
2019-05-09T17:06:57.718Z,94.67
2019-05-09T17:09:28.482Z,167.28
2019-05-09T17:11:57.708Z,80.35
2019-05-09T17:14:28.325Z,84.70
2019-05-09T17:16:59.569Z,185.25
2019-05-09T17:19:28.252Z,172.53
2019-05-09T17:22:07.727Z,202.30
2019-05-09T17:24:37.419Z,156.67
2019-05-09T17:27:08.547Z,98.60
2019-05-09T17:29:38.286Z,106.20
2019-05-09T17:32:07.737Z,127.67
2019-05-09T17:34:38.147Z,99.75
2019-05-09T17:37:08.048Z,127.73
2019-05-09T17:39:38.613Z,95.57
2019-05-09T17:42:07.654Z,93.87
2019-05-09T17:44:36.291Z,106.15
2019-05-09T17:47:08.156Z,151.17
2019-05-09T17:52:07.607Z,109.85
2019-05-09T17:54:37.921Z,147.70
2019-05-09T17:57:08.636Z,171.82
2019-05-09T17:59:39.255Z,156.07
2019-05-09T18:02:08.699Z,130.25
2019-05-09T18:04:37.976Z,158.18
2019-05-09T18:07:08.727Z,150.40
2019-05-09T18:09:36.850Z,136.37
2019-05-09T18:12:05.450Z,139.20
2019-05-09T18:14:33.990Z,151.20
2019-05-09T18:17:02.509Z,202.13
2019-05-09T18:19:30.998Z,204.60
2019-05-09T18:21:59.601Z,168.55
2019-05-09T18:24:28.844Z,155.20
2019-05-09T18:26:58.235Z,151.07
2019-05-09T18:29:27.542Z,153.93
2019-05-09T18:32:16.335Z,159.65
2019-05-09T18:34:45.002Z,148.57
2019-05-09T18:37:13.529Z,138.60
2019-05-09T18:39:42.098Z,135.07
2019-05-09T18:42:10.757Z,144.55
2019-05-09T18:44:39.257Z,149.10
2019-05-09T18:47:07.996Z,182.17
2019-05-09T18:49:36.538Z,182.22
2019-05-09T18:52:05.195Z,234.80
2019-05-09T18:54:33.778Z,171.82
2019-05-09T18:57:02.435Z,295.52
2019-05-09T18:59:30.939Z,188.00
2019-05-09T19:01:59.465Z,219.85
2019-05-09T19:04:27.960Z,178.23
2019-05-09T19:06:56.489Z,226.02
2019-05-09T19:09:25.763Z,184.30
2019-05-09T19:11:54.404Z,155.43
2019-05-09T19:14:23.720Z,188.00
2019-05-09T19:17:05.909Z,167.75
2019-05-09T19:19:38.894Z,150.60
2019-05-09T19:22:21.470Z,168.80
2019-05-09T19:24:38.118Z,152.57
2019-05-09T19:27:06.613Z,168.80
2019-05-09T19:29:35.144Z,165.43
2019-05-09T19:32:04.092Z,170.15
2019-05-09T19:34:32.616Z,171.28
2019-05-09T19:37:01.110Z,219.60
2019-05-09T19:39:29.640Z,224.73
2019-05-09T19:41:58.175Z,187.50
2019-05-09T19:44:26.669Z,190.77
2019-05-09T19:46:55.223Z,183.25
2019-05-09T19:49:24.759Z,164.37
2019-05-09T19:51:53.269Z,137.40
2019-05-09T19:54:21.766Z,172.00
2019-05-09T19:56:50.279Z,184.95
2019-05-09T19:59:18.774Z,255.20
2019-05-09T20:01:47.375Z,266.48
2019-05-09T20:04:15.920Z,213.80
2019-05-09T20:06:46.097Z,191.45
2019-05-09T20:09:18.770Z,174.00
2019-05-09T20:11:48.932Z,170.62
2019-05-09T20:14:19.078Z,180.40
2019-05-09T20:16:49.325Z,177.87
2019-05-09T20:19:17.832Z,149.05
2019-05-09T20:21:46.419Z,160.10
2019-05-09T20:24:14.944Z,164.90
2019-05-09T20:26:45.703Z,168.40
2019-05-09T20:29:14.351Z,205.00
2019-05-09T20:31:42.941Z,199.62
2019-05-09T20:34:11.551Z,235.57
2019-05-09T20:36:40.131Z,253.50
2019-05-09T20:39:08.980Z,242.68
2019-05-09T20:41:37.687Z,234.15
2019-05-09T20:44:06.611Z,229.63
2019-05-09T20:46:35.301Z,194.95
2019-05-09T20:49:06.503Z,212.00
2019-05-09T20:51:35.277Z,225.13
2019-05-09T20:54:19.986Z,200.78
2019-05-09T20:56:35.927Z,177.27
2019-05-09T20:59:05.147Z,171.05
2019-05-09T21:01:33.946Z,170.10
2019-05-09T21:04:02.622Z,193.85
2019-05-09T21:06:31.330Z,198.40
2019-05-09T21:09:00.173Z,238.52
2019-05-09T21:11:28.895Z,176.22
2019-05-09T21:13:57.581Z,227.53
2019-05-09T21:16:26.292Z,182.27
2019-05-09T21:18:55.006Z,204.53
2019-05-09T21:21:23.694Z,195.20
2019-05-09T21:23:52.405Z,202.97
2019-05-09T21:26:21.083Z,168.60
2019-05-09T21:28:49.794Z,136.92
2019-05-09T21:31:18.524Z,167.45
2019-05-09T21:33:47.199Z,161.60
2019-05-09T21:36:15.744Z,134.20
2019-05-09T21:38:44.243Z,140.62
2019-05-09T21:41:12.764Z,128.02
2019-05-09T21:43:41.262Z,102.75
2019-05-09T21:46:09.774Z,110.50
2019-05-09T21:48:38.760Z,90.47
2019-05-09T21:51:07.529Z,96.72
2019-05-09T21:53:40.965Z,91.40
2019-05-09T21:56:06.239Z,90.75
2019-05-09T21:58:34.734Z,84.70
2019-05-09T22:01:04.569Z,85.17
2019-05-09T22:03:33.135Z,91.72
2019-05-09T22:06:01.701Z,97.67
2019-05-09T22:08:30.209Z,96.37
2019-05-09T22:10:58.689Z,96.80
2019-05-09T22:13:27.202Z,82.27
2019-05-09T22:15:55.702Z,80.40
2019-05-09T22:18:24.214Z,101.60
2019-05-09T22:20:52.706Z,77.58
2019-05-09T22:23:21.243Z,88.58
2019-05-09T22:25:49.729Z,77.30
2019-05-09T22:28:18.284Z,78.52
2019-05-09T22:30:46.779Z,80.77
2019-05-09T22:33:15.267Z,80.38
2019-05-09T22:35:43.850Z,75.42
2019-05-09T22:38:12.337Z,77.95
2019-05-09T22:40:40.855Z,68.30
2019-05-09T22:43:09.412Z,82.28
2019-05-09T22:45:38.127Z,73.00
2019-05-09T22:48:06.611Z,82.00
2019-05-09T22:50:35.097Z,90.45
2019-05-09T22:53:04.673Z,92.47
2019-05-09T22:55:33.165Z,89.85
2019-05-09T22:58:01.655Z,80.65
2019-05-09T23:00:30.280Z,87.35
2019-05-09T23:02:58.768Z,80.42
2019-05-09T23:05:27.432Z,83.20
2019-05-09T23:07:56.017Z,92.70
2019-05-09T23:10:24.532Z,88.72
2019-05-09T23:12:53.019Z,78.63
2019-05-09T23:15:21.521Z,79.05
2019-05-09T23:17:50.044Z,84.30
2019-05-09T23:20:20.270Z,97.33
2019-05-09T23:22:48.944Z,103.87
2019-05-09T23:25:17.445Z,80.60
2019-05-09T23:27:45.964Z,92.02
2019-05-09T23:30:15.252Z,80.85
2019-05-09T23:32:45.538Z,92.05
2019-05-09T23:35:14.163Z,72.85
2019-05-09T23:37:42.681Z,74.10
2019-05-09T23:40:11.605Z,87.05
2019-05-09T23:42:40.129Z,89.22
2019-05-09T23:45:09.110Z,80.60
2019-05-09T23:47:37.626Z,69.97
2019-05-09T23:50:06.950Z,82.92
2019-05-09T23:52:35.433Z,82.47
2019-05-09T23:55:21.954Z,85.90
2019-05-09T23:58:08.174Z,78.33
